Terminal Aerodrome Forecast
Issued by NWS

Home | Current Version | Previous Version | Text Only | Print | Product List | Glossary On
Versions: 1 2 3 4 5 6 7 8 9 10 11 12
000
FTUS45 KRIW 250500
TAFRKS
TAF
KRKS 250527Z 2506/2606 26022G32KT P6SM SCT050
     FM251500 26016G26KT P6SM SCT050 BKN100
     FM252100 25020G30KT P6SM SCT100
     FM260100 25013KT P6SM FEW100=

USA.gov is the U.S. government's official web portal to all federal, state and local government web resources and services.